createdAt,value
2023-01-04T00:01:23.447Z,101614.22
2023-01-04T00:03:50.697Z,101615.88
2023-01-04T00:06:18.406Z,101599.69
2023-01-04T00:08:45.347Z,101590.81
2023-01-04T00:11:24.388Z,101595.13
2023-01-04T00:13:56.909Z,101578.97
2023-01-04T00:16:26.057Z,101580.84
2023-01-04T00:18:54.293Z,101569.19
2023-01-04T00:21:26.256Z,101570.94
2023-01-04T00:23:56.279Z,101566.59
2023-01-04T00:26:29.242Z,101563.84
2023-01-04T00:29:00.582Z,101560.91
2023-01-04T00:31:29.149Z,101569.75
2023-01-04T00:33:58.159Z,101556.50
2023-01-04T00:36:26.014Z,101546.81
2023-01-04T00:39:10.393Z,101524.34
2023-01-04T00:41:58.678Z,101535.72
2023-01-04T00:44:26.989Z,101536.50
2023-01-04T00:46:53.997Z,101519.53
2023-01-04T00:49:21.004Z,101503.59
2023-01-04T00:51:47.965Z,101514.34
2023-01-04T00:54:16.158Z,101511.59
2023-01-04T00:56:43.233Z,101489.44
2023-01-04T00:59:12.597Z,101492.97
2023-01-04T01:01:41.449Z,101479.50
2023-01-04T01:04:12.753Z,101489.25
2023-01-04T01:06:40.618Z,101487.38
2023-01-04T01:09:08.269Z,101482.13
2023-01-04T01:11:36.776Z,101481.94
2023-01-04T01:14:04.206Z,101470.25
2023-01-04T01:16:53.895Z,101468.53
2023-01-04T01:19:18.418Z,101463.91
2023-01-04T01:21:45.336Z,101465.47
2023-01-04T01:24:20.147Z,101453.97
2023-01-04T01:26:47.168Z,101439.53
2023-01-04T01:29:14.188Z,101433.31
2023-01-04T01:31:41.893Z,101440.41
2023-01-04T01:34:09.627Z,101429.59
2023-01-04T01:36:37.004Z,101430.50
2023-01-04T01:39:05.393Z,101424.16
2023-01-04T01:41:35.033Z,101397.97
2023-01-04T01:44:43.040Z,101405.91
2023-01-04T01:47:23.985Z,101394.41
2023-01-04T01:49:53.977Z,101390.88
2023-01-04T01:52:32.134Z,101400.41
2023-01-04T01:55:03.736Z,101394.09
2023-01-04T01:57:37.173Z,101380.69
2023-01-04T02:00:14.394Z,101362.59
2023-01-04T02:02:59.697Z,101377.66
2023-01-04T02:05:28.462Z,101358.72
2023-01-04T02:07:55.489Z,101368.47
2023-01-04T02:10:24.220Z,101333.28
2023-01-04T02:12:52.732Z,101344.97
2023-01-04T02:15:20.757Z,101341.13
2023-01-04T02:18:12.127Z,101326.00
2023-01-04T02:20:59.788Z,101312.31
2023-01-04T02:23:57.593Z,101308.53
2023-01-04T02:26:35.204Z,101306.78
2023-01-04T02:29:47.038Z,101291.66
2023-01-04T02:32:46.945Z,101289.75
2023-01-04T02:35:43.133Z,101301.31
2023-01-04T02:38:23.396Z,101267.44
2023-01-04T02:41:09.216Z,101265.72
2023-01-04T02:44:11.208Z,101257.72
2023-01-04T02:46:48.534Z,101250.84
2023-01-04T02:49:34.269Z,101246.31
2023-01-04T02:52:01.399Z,101246.53
2023-01-04T02:54:32.455Z,101234.22
2023-01-04T02:57:18.540Z,101240.66
2023-01-04T03:00:24.715Z,101239.00
2023-01-04T03:03:32.725Z,101209.94
2023-01-04T03:06:30.386Z,101224.66
2023-01-04T03:09:15.173Z,101199.69
2023-01-04T03:12:06.060Z,101202.53
2023-01-04T03:14:53.388Z,101191.03
2023-01-04T03:17:22.784Z,101187.56
2023-01-04T03:19:56.025Z,101180.59
2023-01-04T03:23:02.137Z,101188.63
2023-01-04T03:25:55.904Z,101177.91
2023-01-04T03:28:47.107Z,101160.03
2023-01-04T03:31:46.094Z,101175.44
2023-01-04T03:34:32.111Z,101174.19
2023-01-04T03:37:09.843Z,101116.19
2023-01-04T03:40:28.986Z,101139.00
2023-01-04T03:43:24.632Z,101121.25
2023-01-04T03:46:21.220Z,101102.69
2023-01-04T03:49:02.244Z,101117.22
2023-01-04T03:51:36.008Z,101099.22
2023-01-04T03:54:08.653Z,101084.97
2023-01-04T03:56:41.770Z,101076.94
2023-01-04T03:59:10.896Z,101085.72
2023-01-04T04:01:38.120Z,101077.63
2023-01-04T04:04:24.085Z,101089.00
2023-01-04T04:07:09.951Z,101067.56
2023-01-04T04:09:36.859Z,101068.34
2023-01-04T04:12:03.876Z,101046.53
2023-01-04T04:14:30.840Z,101070.25
2023-01-04T04:16:57.852Z,101052.44
2023-01-04T04:19:24.830Z,101046.91
2023-01-04T04:21:51.826Z,101043.19
2023-01-04T04:24:24.767Z,101045.56
2023-01-04T04:26:54.577Z,101033.00
2023-01-04T04:29:23.249Z,101014.91
2023-01-04T04:31:50.371Z,101028.16
2023-01-04T04:34:17.445Z,101020.09
2023-01-04T04:36:44.457Z,101010.16
2023-01-04T04:39:12.294Z,101010.03
2023-01-04T04:41:41.436Z,101013.50
2023-01-04T04:44:20.415Z,101003.63
2023-01-04T04:46:48.892Z,101013.31
2023-01-04T04:49:17.365Z,101003.31
2023-01-04T04:51:45.273Z,100988.88
2023-01-04T04:54:17.975Z,101011.00
2023-01-04T04:56:44.883Z,100994.81
2023-01-04T04:59:11.859Z,101001.91
2023-01-04T05:01:38.996Z,100980.44
2023-01-04T05:04:06.124Z,100977.66
2023-01-04T05:06:33.358Z,100967.03
2023-01-04T05:09:00.346Z,100965.13
2023-01-04T05:11:47.016Z,100954.16
2023-01-04T05:14:14.057Z,100959.25
2023-01-04T05:16:41.015Z,100950.06
2023-01-04T05:19:08.042Z,100955.13
2023-01-04T05:21:35.060Z,100926.16
2023-01-04T05:24:02.104Z,100962.53
2023-01-04T05:26:29.193Z,100935.41
2023-01-04T05:28:56.162Z,100939.50
2023-01-04T05:31:23.417Z,100925.91
2023-01-04T05:33:50.375Z,100941.72
2023-01-04T05:36:17.427Z,100909.06
2023-01-04T05:38:44.380Z,100908.97
2023-01-04T05:41:29.984Z,100899.00
2023-01-04T05:43:56.954Z,100896.09
2023-01-04T05:46:24.086Z,100876.34
2023-01-04T05:48:51.119Z,100882.56
2023-01-04T05:51:18.485Z,100874.41
2023-01-04T05:53:45.421Z,100873.66
2023-01-04T05:56:12.323Z,100857.44
2023-01-04T05:58:39.368Z,100864.53
2023-01-04T06:01:07.730Z,100845.50
2023-01-04T06:03:35.062Z,100830.16
2023-01-04T06:06:02.234Z,100819.22
2023-01-04T06:08:29.193Z,100827.59
2023-01-04T06:10:56.193Z,100830.19
2023-01-04T06:13:23.153Z,100835.13
2023-01-04T06:15:50.055Z,100829.66
2023-01-04T06:18:16.932Z,100837.47
2023-01-04T06:20:44.148Z,100822.25
2023-01-04T06:23:11.235Z,100836.19
2023-01-04T06:25:38.532Z,100821.81
2023-01-04T06:28:05.442Z,100815.47
2023-01-04T06:30:32.468Z,100824.28
2023-01-04T06:32:59.463Z,100813.22
2023-01-04T06:35:26.319Z,100810.28
2023-01-04T06:37:53.288Z,100810.94
2023-01-04T06:40:20.219Z,100819.75
2023-01-04T06:42:47.230Z,100819.44
2023-01-04T06:45:16.718Z,100819.09
2023-01-04T06:47:44.180Z,100854.69
2023-01-04T06:50:11.912Z,100821.50
2023-01-04T06:52:38.942Z,100807.09
2023-01-04T06:55:09.449Z,100843.75
2023-01-04T06:57:36.646Z,100832.88
2023-01-04T07:00:06.407Z,100815.78
2023-01-04T07:02:33.649Z,100802.22
2023-01-04T07:05:01.461Z,100801.28
2023-01-04T07:07:28.451Z,100811.91
2023-01-04T07:09:55.432Z,100802.03
2023-01-04T07:12:22.382Z,100805.56
2023-01-04T07:14:49.418Z,100814.59
2023-01-04T07:17:16.397Z,100801.06
2023-01-04T07:19:43.448Z,100805.03
2023-01-04T07:22:10.685Z,100808.34
2023-01-04T07:24:37.607Z,100811.03
2023-01-04T07:27:04.534Z,100808.34
2023-01-04T07:29:31.542Z,100810.19
2023-01-04T07:31:58.527Z,100808.97
2023-01-04T07:34:26.274Z,100811.53
2023-01-04T07:36:53.550Z,100809.81
2023-01-04T07:39:21.968Z,100811.47
2023-01-04T07:41:49.954Z,100806.72
2023-01-04T07:44:21.596Z,100811.00
2023-01-04T07:46:48.735Z,100814.31
2023-01-04T07:49:18.599Z,100814.31
2023-01-04T07:51:47.595Z,100826.81
2023-01-04T07:54:16.738Z,100825.84
2023-01-04T07:56:45.423Z,100803.56
2023-01-04T07:59:14.801Z,100807.09
2023-01-04T08:01:42.190Z,100808.09
2023-01-04T08:04:11.649Z,100811.97
2023-01-04T08:06:39.619Z,100798.00
2023-01-04T08:09:07.428Z,100793.28
2023-01-04T08:11:34.956Z,100816.63
2023-01-04T08:14:02.599Z,100808.03
2023-01-04T08:16:39.125Z,100811.81
2023-01-04T08:19:13.098Z,100794.94
2023-01-04T08:21:40.341Z,100801.28
2023-01-04T08:24:07.942Z,100796.84
2023-01-04T08:26:34.822Z,100816.56
2023-01-04T08:29:01.735Z,100824.38
2023-01-04T08:31:31.055Z,100806.53
2023-01-04T08:34:00.840Z,100809.13
2023-01-04T08:36:36.072Z,100816.31
2023-01-04T08:39:06.097Z,100811.69
2023-01-04T08:44:37.781Z,100785.44
2023-01-04T08:47:05.192Z,100798.03
2023-01-04T08:49:32.210Z,100789.72
2023-01-04T08:51:59.142Z,100780.69
2023-01-04T08:54:26.088Z,100792.09
2023-01-04T08:56:53.015Z,100778.44
2023-01-04T08:59:19.969Z,100776.50
2023-01-04T09:01:47.180Z,100778.31
2023-01-04T09:04:14.276Z,100775.53
2023-01-04T09:06:41.197Z,100773.69
2023-01-04T09:09:08.179Z,100774.53
2023-01-04T09:11:35.448Z,100772.72
2023-01-04T09:14:07.757Z,100761.97
2023-01-04T09:16:40.353Z,100753.91
2023-01-04T09:19:08.281Z,100759.28
2023-01-04T09:21:35.648Z,100752.19
2023-01-04T09:24:02.937Z,100745.81
2023-01-04T09:26:30.235Z,100745.59
2023-01-04T09:28:57.924Z,100746.34
2023-01-04T09:31:28.137Z,100744.53
2023-01-04T09:34:14.233Z,100753.44
2023-01-04T09:36:42.003Z,100746.34
2023-01-04T09:39:13.325Z,100753.56
2023-01-04T09:41:55.748Z,100752.47
2023-01-04T09:44:54.880Z,100731.16
2023-01-04T09:47:34.906Z,100746.25
2023-01-04T09:50:18.945Z,100744.41
2023-01-04T09:53:27.096Z,100741.72
2023-01-04T09:55:58.839Z,100744.28
2023-01-04T09:58:40.178Z,100736.13
2023-01-04T10:01:26.390Z,100735.13
2023-01-04T10:04:16.364Z,100732.97
2023-01-04T10:06:43.781Z,100731.03
2023-01-04T10:09:14.776Z,100725.50
2023-01-04T10:11:56.523Z,100724.22
2023-01-04T10:14:41.092Z,100729.34
2023-01-04T10:18:51.883Z,100722.97
2023-01-04T10:24:20.834Z,100714.47
2023-01-04T10:26:50.851Z,100713.59
2023-01-04T10:30:00.069Z,100711.66
2023-01-04T10:32:42.337Z,100681.44
2023-01-04T10:35:27.501Z,100695.38
2023-01-04T10:38:00.701Z,100697.84
2023-01-04T10:40:35.738Z,100683.53
2023-01-04T10:43:24.111Z,100694.91
2023-01-04T10:46:12.358Z,100688.47
2023-01-04T10:49:37.409Z,100689.06
2023-01-04T10:52:17.056Z,100679.28
2023-01-04T10:55:05.097Z,100680.88
2023-01-04T10:57:46.471Z,100664.72
2023-01-04T11:00:24.565Z,100662.88
2023-01-04T11:03:35.341Z,100660.09
2023-01-04T11:06:20.550Z,100669.63
2023-01-04T11:09:02.161Z,100665.97
2023-01-04T11:11:45.851Z,100668.44
2023-01-04T11:14:14.787Z,100668.19
2023-01-04T11:16:46.747Z,100674.44
2023-01-04T11:19:14.011Z,100674.19
2023-01-04T11:21:59.007Z,100657.78
2023-01-04T11:24:32.662Z,100652.19
2023-01-04T11:27:14.375Z,100646.53
2023-01-04T11:29:52.878Z,100640.06
2023-01-04T11:32:34.511Z,100640.91
2023-01-04T11:35:01.693Z,100630.91
2023-01-04T11:37:38.447Z,100628.06
2023-01-04T11:40:19.265Z,100610.72
2023-01-04T11:43:11.198Z,100621.22
2023-01-04T11:45:38.558Z,100622.94
2023-01-04T11:48:10.883Z,100624.53
2023-01-04T11:50:41.400Z,100612.41
2023-01-04T11:53:37.436Z,100612.88
2023-01-04T11:56:26.332Z,100608.84
2023-01-04T11:59:05.586Z,100593.28
2023-01-04T12:01:39.928Z,100595.50
2023-01-04T12:04:22.625Z,100587.91
2023-01-04T12:06:57.947Z,100581.34
2023-01-04T12:09:24.984Z,100594.41
2023-01-04T12:11:56.137Z,100576.28
2023-01-04T12:14:32.958Z,100574.06
2023-01-04T12:17:23.467Z,100567.66
2023-01-04T12:19:56.671Z,100584.59
2023-01-04T12:22:36.276Z,100571.72
2023-01-04T12:25:08.085Z,100573.44
2023-01-04T12:27:36.625Z,100559.81
2023-01-04T12:30:08.077Z,100564.13
2023-01-04T12:32:34.889Z,100578.31
2023-01-04T12:35:02.008Z,100578.19
2023-01-04T12:37:38.070Z,100550.13
2023-01-04T12:40:47.015Z,100555.28
2023-01-04T12:43:17.301Z,100555.00
2023-01-04T12:46:08.277Z,100562.25
2023-01-04T12:48:54.264Z,100562.97
2023-01-04T12:51:32.118Z,100552.06
2023-01-04T12:54:05.753Z,100550.19
2023-01-04T12:57:10.440Z,100551.06
2023-01-04T12:59:54.380Z,100566.28
2023-01-04T13:02:30.242Z,100577.06
2023-01-04T13:05:53.571Z,100523.13
2023-01-04T13:07:50.976Z,100533.63
2023-01-04T13:10:35.847Z,100518.19
2023-01-04T13:13:39.030Z,100530.56
2023-01-04T13:16:19.985Z,100518.91
2023-01-04T13:18:54.913Z,100511.69
2023-01-04T13:21:39.055Z,100510.25
2023-01-04T13:24:30.644Z,100511.69
2023-01-04T13:27:08.167Z,100499.66
2023-01-04T13:29:36.149Z,100494.50
2023-01-04T13:32:09.523Z,100488.88
2023-01-04T13:34:43.892Z,100492.56
2023-01-04T13:37:10.747Z,100487.00
2023-01-04T13:39:50.512Z,100486.88
2023-01-04T13:42:37.309Z,100486.47
2023-01-04T13:45:39.139Z,100488.78
2023-01-04T13:48:13.672Z,100483.13
2023-01-04T13:50:47.219Z,100476.47
2023-01-04T13:53:25.374Z,100485.06
2023-01-04T13:56:01.906Z,100481.97
2023-01-04T13:58:31.995Z,100471.34
2023-01-04T14:01:03.907Z,100474.25
2023-01-04T14:03:58.954Z,100479.34
2023-01-04T14:06:47.931Z,100483.75
2023-01-04T14:09:18.910Z,100459.22
2023-01-04T14:12:07.634Z,100451.97
2023-01-04T14:14:50.958Z,100454.25
2023-01-04T14:17:35.224Z,100453.00
2023-01-04T14:20:15.541Z,100448.78
2023-01-04T14:22:45.169Z,100455.88
2023-01-04T14:25:30.835Z,100447.53
2023-01-04T14:28:19.528Z,100468.09
2023-01-04T14:30:53.193Z,100479.63
2023-01-04T14:33:41.629Z,100442.81
2023-01-04T14:36:14.766Z,100459.75
2023-01-04T14:39:00.673Z,100458.63
2023-01-04T14:41:39.657Z,100462.19
2023-01-04T14:44:14.193Z,100478.00
2023-01-04T14:46:45.604Z,100478.59
2023-01-04T14:49:13.827Z,100495.66
2023-01-04T14:51:52.662Z,100484.13
2023-01-04T14:54:24.909Z,100492.09
2023-01-04T14:56:54.535Z,100489.53
2023-01-04T14:59:25.185Z,100487.81
2023-01-04T15:01:57.243Z,100490.50
2023-01-04T15:04:24.807Z,100490.50
2023-01-04T15:07:01.163Z,100490.50
2023-01-04T15:09:29.903Z,100487.81
2023-01-04T15:11:57.230Z,100486.09
2023-01-04T15:14:24.461Z,100499.34
2023-01-04T15:16:51.575Z,100491.50
2023-01-04T15:19:18.562Z,100474.56
2023-01-04T15:21:45.534Z,100475.41
2023-01-04T15:24:12.537Z,100479.09
2023-01-04T15:26:40.090Z,100475.94
2023-01-04T15:29:08.670Z,100476.22
2023-01-04T15:31:39.775Z,100480.78
2023-01-04T15:34:09.407Z,100485.19
2023-01-04T15:36:38.684Z,100478.91
2023-01-04T15:39:07.080Z,100482.47
2023-01-04T15:41:53.022Z,100465.28
2023-01-04T15:44:19.971Z,100466.88
2023-01-04T15:46:47.083Z,100473.09
2023-01-04T15:49:17.497Z,100472.84
2023-01-04T15:51:46.266Z,100469.88
2023-01-04T15:54:13.926Z,100476.00
2023-01-04T15:56:40.852Z,100462.66
2023-01-04T15:59:07.776Z,100468.91
2023-01-04T16:01:34.801Z,100477.13
2023-01-04T16:04:03.075Z,100473.47
2023-01-04T16:06:30.080Z,100466.47
2023-01-04T16:08:58.854Z,100449.25
2023-01-04T16:11:25.855Z,100463.38
2023-01-04T16:13:53.121Z,100448.16
2023-01-04T16:16:24.102Z,100467.06
2023-01-04T16:18:54.570Z,100455.66
2023-01-04T16:21:27.157Z,100449.78
2023-01-04T16:24:05.187Z,100448.63
2023-01-04T16:26:34.150Z,100449.91
2023-01-04T16:29:02.705Z,100454.44
2023-01-04T16:31:37.514Z,100442.94
2023-01-04T16:34:05.260Z,100442.66
2023-01-04T16:36:32.568Z,100433.72
2023-01-04T16:39:02.536Z,100432.31
2023-01-04T16:41:29.606Z,100435.44
2023-01-04T16:44:01.043Z,100468.56
2023-01-04T16:46:36.359Z,100429.63
2023-01-04T16:49:11.154Z,100443.59
2023-01-04T16:51:40.108Z,100450.72
2023-01-04T16:54:11.291Z,100448.16
2023-01-04T16:56:39.249Z,100458.81
2023-01-04T16:59:06.594Z,100462.50
2023-01-04T17:01:38.425Z,100470.34
2023-01-04T17:04:10.729Z,100464.09
2023-01-04T17:06:47.808Z,100468.78
2023-01-04T17:09:19.515Z,100463.50
2023-01-04T17:15:00.720Z,100466.38
2023-01-04T17:17:34.945Z,100466.09
2023-01-04T17:20:04.434Z,100464.41
2023-01-04T17:22:34.494Z,100456.19
2023-01-04T17:25:02.031Z,100467.25
2023-01-04T17:27:29.277Z,100455.31
2023-01-04T17:29:56.306Z,100442.66
2023-01-04T17:32:23.280Z,100442.78
2023-01-04T17:34:51.248Z,100460.69
2023-01-04T17:37:18.188Z,100452.88
2023-01-04T17:39:45.145Z,100461.69
2023-01-04T17:42:12.299Z,100443.91
2023-01-04T17:44:39.382Z,100440.97
2023-01-04T17:47:06.310Z,100449.06
2023-01-04T17:49:33.271Z,100445.50
2023-01-04T17:52:01.096Z,100441.22
2023-01-04T17:54:28.006Z,100459.13
2023-01-04T17:56:54.985Z,100460.13
2023-01-04T17:59:21.935Z,100468.53
2023-01-04T18:01:49.082Z,100462.28
2023-01-04T18:04:17.047Z,100447.59
2023-01-04T18:06:44.095Z,100452.69
2023-01-04T18:09:14.362Z,100459.19
2023-01-04T18:11:44.490Z,100457.06
2023-01-04T18:14:14.145Z,100483.63
2023-01-04T18:16:57.686Z,100462.34
2023-01-04T18:19:30.385Z,100464.19
2023-01-04T18:21:58.681Z,100453.44
2023-01-04T18:24:41.607Z,100478.38
2023-01-04T18:27:22.108Z,100483.47
2023-01-04T18:29:51.870Z,100465.50
2023-01-04T18:32:19.029Z,100459.41
2023-01-04T18:34:46.010Z,100455.97
2023-01-04T18:37:13.685Z,100447.16
2023-01-04T18:39:40.747Z,100457.19
2023-01-04T18:42:07.803Z,100458.53
2023-01-04T18:44:35.662Z,100454.00
2023-01-04T18:47:04.136Z,100459.84
2023-01-04T18:49:31.426Z,100444.25
2023-01-04T18:51:58.384Z,100449.97
2023-01-04T18:54:25.351Z,100446.56
2023-01-04T18:56:58.740Z,100448.66
2023-01-04T18:59:29.434Z,100452.34
2023-01-04T19:02:01.102Z,100452.00
2023-01-04T19:04:32.000Z,100454.13
2023-01-04T19:06:59.007Z,100449.84
2023-01-04T19:09:25.981Z,100440.78
2023-01-04T19:11:53.049Z,100444.44
2023-01-04T19:14:20.130Z,100436.38
2023-01-04T19:16:47.178Z,100437.50
2023-01-04T19:19:14.249Z,100436.38
2023-01-04T19:21:41.226Z,100442.75
2023-01-04T19:24:08.189Z,100430.97
2023-01-04T19:26:35.147Z,100439.19
2023-01-04T19:29:03.762Z,100439.19
2023-01-04T19:31:34.715Z,100445.44
2023-01-04T19:34:02.663Z,100432.69
2023-01-04T19:36:29.787Z,100430.44
2023-01-04T19:38:57.308Z,100425.66
2023-01-04T19:41:33.423Z,100432.72
2023-01-04T19:44:07.260Z,100425.50
2023-01-04T19:46:38.415Z,100432.63
2023-01-04T19:49:12.722Z,100432.34
2023-01-04T19:51:43.720Z,100437.63
2023-01-04T19:54:11.045Z,100440.16
2023-01-04T19:56:38.064Z,100453.41
2023-01-04T19:59:06.727Z,100451.41
2023-01-04T20:01:34.076Z,100450.41
2023-01-04T20:04:01.292Z,100462.69
2023-01-04T20:06:28.333Z,100454.44
2023-01-04T20:08:55.274Z,100459.69
2023-01-04T20:11:22.225Z,100456.88
2023-01-04T20:13:49.223Z,100475.78
2023-01-04T20:16:16.248Z,100470.38
2023-01-04T20:18:43.448Z,100457.72
2023-01-04T20:21:13.580Z,100469.97
2023-01-04T20:23:41.441Z,100481.75
2023-01-04T20:26:14.300Z,100474.78
2023-01-04T20:28:43.868Z,100488.38
2023-01-04T20:31:14.572Z,100500.56
2023-01-04T20:33:41.559Z,100495.97
2023-01-04T20:36:17.316Z,100499.72
2023-01-04T20:38:46.467Z,100504.31
2023-01-04T20:41:17.730Z,100504.94
2023-01-04T20:43:46.678Z,100503.16
2023-01-04T20:46:20.500Z,100502.81
2023-01-04T20:48:48.247Z,100508.72
2023-01-04T20:51:25.307Z,100511.06
2023-01-04T20:53:52.833Z,100513.91
2023-01-04T20:56:27.092Z,100513.16
2023-01-04T20:58:54.780Z,100502.38
2023-01-04T21:01:22.949Z,100496.41
2023-01-04T21:03:50.395Z,100513.28
2023-01-04T21:06:18.970Z,100502.28
2023-01-04T21:08:46.533Z,100507.69
2023-01-04T21:11:13.926Z,100491.78
2023-01-04T21:13:41.000Z,100481.75
2023-01-04T21:16:08.582Z,100487.25
2023-01-04T21:18:35.780Z,100495.03
2023-01-04T21:21:08.745Z,100498.09
2023-01-04T21:23:36.564Z,100500.41
2023-01-04T21:26:09.215Z,100499.03
2023-01-04T21:28:36.483Z,100493.25
2023-01-04T21:31:11.078Z,100512.00
2023-01-04T21:33:38.816Z,100502.91
2023-01-04T21:36:14.731Z,100495.22
2023-01-04T21:38:41.786Z,100497.44
2023-01-04T21:41:12.335Z,100518.16
2023-01-04T21:43:40.812Z,100509.72
2023-01-04T21:46:12.083Z,100514.28
2023-01-04T21:48:39.399Z,100507.47
2023-01-04T21:51:07.434Z,100518.47
2023-01-04T21:53:36.382Z,100519.69
2023-01-04T21:56:07.838Z,100521.78
2023-01-04T21:58:35.744Z,100527.28
2023-01-04T22:01:12.132Z,100526.44
2023-01-04T22:03:39.486Z,100530.94
2023-01-04T22:06:07.361Z,100522.16
2023-01-04T22:08:35.499Z,100528.63
2023-01-04T22:11:04.643Z,100523.53
2023-01-04T22:13:31.737Z,100522.53
2023-01-04T22:15:58.673Z,100523.53
2023-01-04T22:18:25.636Z,100515.53
2023-01-04T22:21:20.910Z,100526.06
2023-01-04T22:23:47.949Z,100531.31
2023-01-04T22:26:14.950Z,100541.25
2023-01-04T22:28:41.984Z,100532.44
2023-01-04T22:31:11.911Z,100542.38
2023-01-04T22:33:40.366Z,100561.34
2023-01-04T22:36:19.497Z,100548.59
2023-01-04T22:38:48.658Z,100549.13
2023-01-04T22:41:18.837Z,100536.84
2023-01-04T22:43:46.342Z,100552.91
2023-01-04T22:46:17.366Z,100552.31
2023-01-04T22:48:45.582Z,100555.22
2023-01-04T22:51:15.885Z,100556.22
2023-01-04T22:53:43.228Z,100552.44
2023-01-04T22:56:21.013Z,100552.69
2023-01-04T22:58:55.441Z,100555.75
2023-01-04T23:01:26.101Z,100555.47
2023-01-04T23:03:54.604Z,100554.41
2023-01-04T23:06:23.414Z,100554.25
2023-01-04T23:08:56.935Z,100554.03
2023-01-04T23:11:24.613Z,100569.19
2023-01-04T23:13:52.582Z,100565.41
2023-01-04T23:16:21.178Z,100570.19
2023-01-04T23:18:51.002Z,100569.91
2023-01-04T23:21:18.006Z,100563.09
2023-01-04T23:23:49.799Z,100567.38
2023-01-04T23:26:23.218Z,100571.16
2023-01-04T23:28:50.899Z,100559.28
2023-01-04T23:31:21.656Z,100573.34
2023-01-04T23:33:54.020Z,100580.31
2023-01-04T23:36:25.583Z,100577.50
2023-01-04T23:38:57.041Z,100572.38
2023-01-04T23:41:44.182Z,100583.16
2023-01-04T23:44:32.319Z,100568.94
2023-01-04T23:47:02.249Z,100574.19
2023-01-04T23:49:32.564Z,100584.38
2023-01-04T23:52:00.522Z,100582.66
2023-01-04T23:54:28.053Z,100600.28
2023-01-04T23:56:55.671Z,100600.28
2023-01-04T23:59:23.681Z,100587.56
